createdAt,value
2023-01-21T00:00:15.224Z,62.45
2023-01-21T00:02:42.767Z,61.40
2023-01-21T00:05:10.135Z,54.90
2023-01-21T00:07:37.452Z,61.42
2023-01-21T00:10:05.376Z,56.67
2023-01-21T00:12:32.708Z,56.65
2023-01-21T00:15:00.132Z,57.13
2023-01-21T00:17:27.336Z,58.58
2023-01-21T00:19:54.721Z,59.08
2023-01-21T00:22:22.148Z,54.25
2023-01-21T00:24:49.467Z,51.40
2023-01-21T00:27:16.803Z,48.75
2023-01-21T00:29:43.986Z,49.25
2023-01-21T00:32:11.284Z,49.33
2023-01-21T00:34:38.719Z,46.30
2023-01-21T00:37:06.101Z,51.40
2023-01-21T00:39:33.540Z,44.22
2023-01-21T00:42:00.944Z,48.08
2023-01-21T00:44:28.328Z,49.47
2023-01-21T00:46:55.658Z,43.53
2023-01-21T00:49:22.972Z,42.53
2023-01-21T00:51:50.226Z,48.53
2023-01-21T00:54:17.607Z,45.42
2023-01-21T00:56:44.923Z,46.10
2023-01-21T00:59:12.593Z,46.38
2023-01-21T01:01:40.167Z,48.20
2023-01-21T01:04:07.692Z,47.97
2023-01-21T01:06:35.252Z,44.88
2023-01-21T01:09:02.658Z,41.50
2023-01-21T01:11:30.962Z,43.53
2023-01-21T01:13:59.595Z,40.63
2023-01-21T01:16:26.913Z,43.00
2023-01-21T01:18:54.391Z,43.75
2023-01-21T01:21:22.770Z,34.78
2023-01-21T01:23:52.628Z,36.80
2023-01-21T01:26:21.493Z,37.25
2023-01-21T01:28:49.053Z,37.78
2023-01-21T01:31:18.816Z,31.23
2023-01-21T01:33:47.579Z,33.85
2023-01-21T01:36:17.816Z,34.30
2023-01-21T01:41:21.535Z,37.45
2023-01-21T01:43:58.948Z,29.02
2023-01-21T01:46:29.983Z,33.50
2023-01-21T01:49:06.667Z,32.63
2023-01-21T01:51:50.482Z,30.77
2023-01-21T01:54:23.430Z,36.20
2023-01-21T01:56:55.348Z,34.58
2023-01-21T01:59:22.971Z,39.42
2023-01-21T02:01:50.373Z,35.80
2023-01-21T02:04:30.062Z,33.50
2023-01-21T02:06:58.394Z,37.78
2023-01-21T02:09:30.095Z,38.78
2023-01-21T02:12:03.033Z,42.60
2023-01-21T02:14:32.093Z,32.97
2023-01-21T02:17:12.727Z,34.33
2023-01-21T02:20:10.943Z,32.30
2023-01-21T02:22:46.852Z,33.28
2023-01-21T02:25:35.958Z,36.67
2023-01-21T02:28:27.568Z,33.33
2023-01-21T02:31:31.872Z,34.05
2023-01-21T02:34:01.806Z,37.45
2023-01-21T02:36:37.118Z,34.00
2023-01-21T02:39:22.143Z,38.25
2023-01-21T02:42:13.089Z,39.72
2023-01-21T02:44:44.564Z,35.30
2023-01-21T02:47:40.963Z,31.77
2023-01-21T02:50:28.975Z,36.03
2023-01-21T02:53:01.699Z,35.25
2023-01-21T02:55:47.191Z,34.58
2023-01-21T02:58:18.895Z,32.40
2023-01-21T03:01:04.384Z,33.63
2023-01-21T03:03:47.293Z,31.52
2023-01-21T03:06:30.488Z,33.00
2023-01-21T03:09:16.539Z,28.60
2023-01-21T03:11:51.632Z,33.65
2023-01-21T03:14:49.330Z,31.58
2023-01-21T03:17:33.787Z,29.83
2023-01-21T03:20:18.706Z,30.25
2023-01-21T03:22:48.097Z,28.83
2023-01-21T03:25:17.226Z,31.70
2023-01-21T03:27:48.420Z,32.85
2023-01-21T03:30:18.704Z,31.05
2023-01-21T03:32:50.456Z,29.83
2023-01-21T03:35:37.482Z,26.05
2023-01-21T03:38:14.258Z,25.52
2023-01-21T03:40:48.271Z,30.67
2023-01-21T03:43:15.666Z,27.20
2023-01-21T03:45:55.398Z,27.33
2023-01-21T03:48:31.791Z,25.05
2023-01-21T03:51:13.973Z,24.70
2023-01-21T03:53:42.413Z,29.25
2023-01-21T03:56:09.730Z,23.40
2023-01-21T03:58:37.485Z,24.17
2023-01-21T04:01:04.909Z,21.58
2023-01-21T04:03:32.183Z,22.25
2023-01-21T04:05:59.523Z,24.33
2023-01-21T04:08:26.830Z,22.73
2023-01-21T04:10:54.182Z,22.35
2023-01-21T04:13:21.445Z,18.00
2023-01-21T04:15:48.801Z,20.85
2023-01-21T04:18:16.352Z,18.70
2023-01-21T04:20:46.821Z,17.13
2023-01-21T04:23:14.165Z,14.50
2023-01-21T04:25:41.409Z,14.85
2023-01-21T04:28:08.871Z,14.85
2023-01-21T04:30:36.385Z,13.30
2023-01-21T04:33:03.821Z,13.25
2023-01-21T04:35:31.288Z,12.88
2023-01-21T04:37:58.636Z,13.75
2023-01-21T04:40:26.064Z,14.18
2023-01-21T04:42:53.508Z,13.65
2023-01-21T04:45:21.035Z,11.77
2023-01-21T04:47:48.336Z,11.25
2023-01-21T04:50:16.658Z,12.23
2023-01-21T04:52:44.082Z,12.02
2023-01-21T04:55:11.892Z,10.73
2023-01-21T04:57:39.202Z,12.10
2023-01-21T05:00:08.880Z,12.75
2023-01-21T05:02:36.294Z,10.85
2023-01-21T05:05:03.887Z,10.38
2023-01-21T05:07:31.208Z,10.10
2023-01-21T05:09:58.465Z,9.07
2023-01-21T05:12:25.754Z,11.65
2023-01-21T05:14:54.976Z,7.40
2023-01-21T05:17:22.193Z,9.53
2023-01-21T05:19:51.124Z,15.73
2023-01-21T05:22:18.759Z,8.48
2023-01-21T05:24:46.128Z,9.98
2023-01-21T05:27:13.461Z,6.82
2023-01-21T05:29:40.952Z,17.77
2023-01-21T05:32:08.168Z,9.20
2023-01-21T05:34:35.648Z,7.63
2023-01-21T05:37:02.945Z,9.90
2023-01-21T05:39:30.175Z,11.70
2023-01-21T05:41:57.395Z,7.25
2023-01-21T05:44:24.677Z,8.43
2023-01-21T05:46:51.904Z,12.77
2023-01-21T05:49:20.038Z,8.27
2023-01-21T05:51:47.504Z,5.97
2023-01-21T05:54:15.032Z,7.00
2023-01-21T05:56:42.405Z,8.65
2023-01-21T05:59:10.081Z,7.15
2023-01-21T06:01:37.487Z,6.53
2023-01-21T06:04:04.978Z,6.07
2023-01-21T06:06:32.235Z,4.95
2023-01-21T06:08:59.541Z,9.50
2023-01-21T06:11:26.952Z,5.03
2023-01-21T06:13:54.403Z,8.43
2023-01-21T06:16:21.613Z,7.40
2023-01-21T06:18:48.842Z,6.88
2023-01-21T06:21:16.200Z,7.53
2023-01-21T06:23:43.568Z,6.28
2023-01-21T06:26:10.938Z,6.38
2023-01-21T06:28:38.196Z,7.38
2023-01-21T06:31:05.775Z,5.55
2023-01-21T06:33:33.126Z,7.00
2023-01-21T06:36:00.305Z,3.92
2023-01-21T06:38:27.591Z,8.15
2023-01-21T06:40:55.084Z,5.40
2023-01-21T06:43:22.542Z,5.40
2023-01-21T06:45:50.148Z,6.88
2023-01-21T06:48:17.610Z,7.10
2023-01-21T06:50:44.987Z,6.88
2023-01-21T06:53:12.341Z,4.50
2023-01-21T06:55:39.936Z,5.13
2023-01-21T06:58:07.247Z,5.38
2023-01-21T07:00:34.715Z,4.53
2023-01-21T07:03:02.204Z,6.28
2023-01-21T07:05:29.732Z,5.57
2023-01-21T07:07:58.205Z,5.10
2023-01-21T07:10:26.184Z,4.38
2023-01-21T07:12:53.497Z,6.32
2023-01-21T07:15:20.947Z,3.88
2023-01-21T07:17:48.548Z,6.57
2023-01-21T07:20:16.141Z,5.05
2023-01-21T07:22:43.451Z,4.63
2023-01-21T07:25:10.810Z,5.32
2023-01-21T07:27:38.135Z,6.97
2023-01-21T07:30:06.773Z,4.63
2023-01-21T07:32:34.055Z,5.82
2023-01-21T07:35:01.383Z,7.53
2023-01-21T07:37:28.637Z,5.03
2023-01-21T07:39:56.748Z,6.22
2023-01-21T07:42:24.079Z,8.25
2023-01-21T07:44:51.423Z,5.88
2023-01-21T07:47:18.900Z,10.25
2023-01-21T07:49:46.266Z,8.00
2023-01-21T07:52:13.890Z,8.68
2023-01-21T07:54:41.083Z,7.10
2023-01-21T07:57:08.635Z,15.32
2023-01-21T07:59:35.873Z,16.23
2023-01-21T08:02:03.597Z,24.95
2023-01-21T08:04:31.142Z,30.25
2023-01-21T08:06:59.108Z,12.05
2023-01-21T08:09:26.667Z,12.82
2023-01-21T08:11:54.062Z,6.25
2023-01-21T08:14:21.542Z,8.98
2023-01-21T08:16:48.933Z,8.00
2023-01-21T08:19:16.495Z,9.60
2023-01-21T08:21:43.875Z,9.20
2023-01-21T08:24:11.320Z,10.68
2023-01-21T08:26:38.877Z,7.93
2023-01-21T08:29:06.336Z,9.25
2023-01-21T08:31:33.815Z,6.97
2023-01-21T08:34:01.122Z,8.82
2023-01-21T08:36:28.491Z,9.73
2023-01-21T08:38:58.905Z,9.25
2023-01-21T08:41:26.334Z,7.97
2023-01-21T08:43:53.803Z,9.45
2023-01-21T08:46:21.230Z,8.00
2023-01-21T08:48:48.698Z,6.68
2023-01-21T08:51:16.103Z,8.80
2023-01-21T08:53:43.568Z,8.18
2023-01-21T08:56:11.051Z,7.63
2023-01-21T08:58:38.411Z,8.20
2023-01-21T09:01:10.741Z,7.63
2023-01-21T09:03:38.461Z,7.20
2023-01-21T09:06:06.745Z,12.10
2023-01-21T09:08:34.412Z,9.63
2023-01-21T09:11:02.827Z,10.57
2023-01-21T09:13:35.587Z,11.05
2023-01-21T09:16:02.968Z,9.23
2023-01-21T09:18:30.352Z,10.65
2023-01-21T09:21:02.005Z,7.63
2023-01-21T09:23:32.558Z,7.55
2023-01-21T09:26:07.446Z,11.75
2023-01-21T09:28:37.649Z,8.00
2023-01-21T09:31:07.949Z,11.50
2023-01-21T09:33:37.861Z,11.55
2023-01-21T09:36:07.702Z,13.57
2023-01-21T09:38:35.319Z,13.32
2023-01-21T09:41:34.089Z,10.20
2023-01-21T09:44:23.098Z,12.90
2023-01-21T09:46:59.030Z,10.68
2023-01-21T09:49:33.909Z,11.48
2023-01-21T09:52:19.611Z,13.05
2023-01-21T09:54:47.124Z,11.00
2023-01-21T09:57:26.688Z,9.85
2023-01-21T10:00:28.203Z,13.63
2023-01-21T10:03:16.683Z,9.52
2023-01-21T10:05:44.205Z,10.73
2023-01-21T10:08:17.445Z,9.13
2023-01-21T10:10:52.619Z,10.77
2023-01-21T10:13:32.487Z,11.93
2023-01-21T10:16:16.538Z,12.65
2023-01-21T10:18:48.600Z,9.43
2023-01-21T10:21:37.901Z,8.90
2023-01-21T10:24:19.257Z,10.57
2023-01-21T10:26:49.993Z,8.52
2023-01-21T10:29:19.916Z,6.60
2023-01-21T10:34:20.814Z,7.38
2023-01-21T10:37:16.485Z,6.80
2023-01-21T10:40:12.784Z,5.70
2023-01-21T10:43:01.186Z,6.72
2023-01-21T10:45:39.409Z,7.63
2023-01-21T10:48:35.546Z,5.07
2023-01-21T10:51:24.204Z,4.45
2023-01-21T10:54:15.307Z,6.22
2023-01-21T10:56:43.395Z,5.30
2023-01-21T10:59:15.695Z,4.40
2023-01-21T11:01:47.857Z,6.47
2023-01-21T11:04:17.455Z,7.70
2023-01-21T11:06:47.439Z,4.95
2023-01-21T11:09:16.825Z,3.90
2023-01-21T11:11:47.226Z,4.22
2023-01-21T11:14:19.860Z,5.15
2023-01-21T11:16:52.080Z,3.65
2023-01-21T11:19:31.543Z,4.38
2023-01-21T11:22:17.937Z,3.25
2023-01-21T11:24:52.306Z,3.75
2023-01-21T11:27:29.436Z,3.47
2023-01-21T11:29:57.922Z,3.40
2023-01-21T11:32:28.460Z,3.75
2023-01-21T11:35:10.521Z,3.08
2023-01-21T11:37:39.445Z,4.95
2023-01-21T11:40:13.374Z,4.43
2023-01-21T11:42:53.478Z,6.75
2023-01-21T11:45:29.869Z,4.50
2023-01-21T11:47:59.775Z,4.28
2023-01-21T11:50:36.542Z,4.65
2023-01-21T11:53:20.486Z,7.20
2023-01-21T11:55:50.492Z,4.43
2023-01-21T11:58:32.446Z,3.90
2023-01-21T12:01:09.527Z,4.85
2023-01-21T12:03:46.599Z,6.40
2023-01-21T12:06:32.367Z,3.85
2023-01-21T12:09:05.766Z,4.65
2023-01-21T12:11:33.879Z,3.72
2023-01-21T12:14:22.995Z,4.55
2023-01-21T12:17:16.954Z,3.72
2023-01-21T12:20:01.274Z,3.53
2023-01-21T12:22:41.956Z,4.70
2023-01-21T12:25:55.837Z,4.28
2023-01-21T12:28:35.125Z,5.15
2023-01-21T12:31:24.383Z,5.90
2023-01-21T12:34:13.238Z,6.57
2023-01-21T12:36:49.360Z,5.95
2023-01-21T12:39:25.754Z,6.60
2023-01-21T12:42:06.705Z,6.22
2023-01-21T12:44:46.337Z,4.95
2023-01-21T12:47:54.548Z,5.18
2023-01-21T12:50:42.956Z,5.28
2023-01-21T12:53:27.945Z,6.05
2023-01-21T12:56:17.979Z,6.25
2023-01-21T13:01:59.766Z,4.60
2023-01-21T13:04:50.655Z,4.05
2023-01-21T13:07:32.817Z,4.63
2023-01-21T13:10:10.319Z,4.35
2023-01-21T13:12:41.925Z,4.80
2023-01-21T13:15:16.236Z,4.40
2023-01-21T13:17:48.515Z,5.88
2023-01-21T13:20:22.785Z,5.13
2023-01-21T13:23:03.824Z,4.55
2023-01-21T13:25:31.720Z,3.85
2023-01-21T13:28:15.067Z,7.15
2023-01-21T13:31:02.196Z,4.95
2023-01-21T13:33:55.721Z,5.78
2023-01-21T13:36:42.818Z,6.93
2023-01-21T13:39:44.744Z,5.30
2023-01-21T13:42:28.809Z,4.47
2023-01-21T13:45:15.206Z,6.05
2023-01-21T13:47:56.768Z,10.05
2023-01-21T13:50:39.500Z,5.78
2023-01-21T13:53:15.941Z,6.47
2023-01-21T13:55:57.421Z,5.20
2023-01-21T13:58:42.954Z,6.18
2023-01-21T14:01:30.686Z,5.45
2023-01-21T14:04:03.277Z,6.35
2023-01-21T14:06:44.785Z,5.82
2023-01-21T14:09:32.973Z,5.65
2023-01-21T14:12:11.888Z,7.90
2023-01-21T14:15:06.519Z,7.47
2023-01-21T14:18:09.069Z,5.70
2023-01-21T14:21:04.936Z,7.80
2023-01-21T14:23:57.576Z,7.60
2023-01-21T14:26:43.665Z,10.20
2023-01-21T14:29:47.768Z,8.50
2023-01-21T14:32:44.406Z,8.10
2023-01-21T14:35:48.719Z,9.35
2023-01-21T14:38:29.376Z,11.00
2023-01-21T14:41:10.291Z,7.78
2023-01-21T14:43:38.429Z,10.30
2023-01-21T14:46:27.096Z,8.35
2023-01-21T14:49:08.880Z,10.10
2023-01-21T14:51:42.385Z,8.68
2023-01-21T14:54:12.295Z,7.63
2023-01-21T14:56:40.529Z,10.00
2023-01-21T14:59:35.526Z,8.50
2023-01-21T15:02:32.394Z,8.82
2023-01-21T15:05:03.658Z,8.32
2023-01-21T15:07:38.675Z,9.27
2023-01-21T15:10:20.661Z,11.07
2023-01-21T15:12:55.914Z,9.02
2023-01-21T15:15:35.334Z,10.80
2023-01-21T15:18:26.754Z,8.93
2023-01-21T15:21:00.185Z,10.10
2023-01-21T15:23:31.629Z,9.95
2023-01-21T15:26:10.255Z,8.57
2023-01-21T15:28:56.635Z,9.38
2023-01-21T15:31:25.493Z,8.43
2023-01-21T15:33:57.819Z,11.75
2023-01-21T15:36:31.525Z,9.93
2023-01-21T15:39:03.240Z,12.65
2023-01-21T15:41:52.149Z,13.15
2023-01-21T15:44:38.688Z,12.57
2023-01-21T15:47:25.798Z,9.63
2023-01-21T15:50:02.154Z,11.63
2023-01-21T15:52:55.524Z,12.52
2023-01-21T15:55:56.997Z,11.55
2023-01-21T15:58:59.115Z,11.60
2023-01-21T16:01:40.447Z,10.35
2023-01-21T16:04:26.698Z,12.68
2023-01-21T16:06:58.025Z,12.48
2023-01-21T16:09:48.299Z,11.82
2023-01-21T16:12:39.644Z,14.40
2023-01-21T16:15:26.100Z,15.13
2023-01-21T16:18:03.646Z,14.90
2023-01-21T16:20:32.656Z,15.05
2023-01-21T16:23:05.334Z,13.90
2023-01-21T16:25:33.439Z,13.43
2023-01-21T16:28:01.155Z,11.98
2023-01-21T16:30:31.137Z,11.77
2023-01-21T16:33:15.810Z,14.07
2023-01-21T16:35:43.496Z,14.18
2023-01-21T16:38:19.895Z,10.88
2023-01-21T16:40:50.218Z,15.63
2023-01-21T16:43:29.815Z,16.05
2023-01-21T16:46:11.925Z,15.45
2023-01-21T16:48:40.285Z,17.55
2023-01-21T16:51:19.351Z,13.77
2023-01-21T16:53:47.440Z,17.77
2023-01-21T16:56:27.249Z,16.58
2023-01-21T16:58:58.985Z,16.05
2023-01-21T17:01:30.322Z,16.40
2023-01-21T17:04:01.614Z,15.25
2023-01-21T17:06:32.197Z,18.45
2023-01-21T17:09:05.455Z,18.60
2023-01-21T17:11:35.302Z,18.35
2023-01-21T17:14:10.381Z,16.70
2023-01-21T17:16:42.345Z,17.60
2023-01-21T17:19:26.115Z,18.30
2023-01-21T17:21:59.173Z,15.25
2023-01-21T17:24:37.722Z,14.95
2023-01-21T17:27:22.298Z,16.20
2023-01-21T17:29:50.285Z,14.77
2023-01-21T17:32:35.209Z,14.20
2023-01-21T17:35:13.682Z,15.63
2023-01-21T17:37:51.965Z,13.77
2023-01-21T17:40:40.701Z,14.65
2023-01-21T17:43:26.499Z,14.35
2023-01-21T17:45:57.749Z,12.70
2023-01-21T17:48:53.936Z,13.38
2023-01-21T17:51:26.772Z,15.10
2023-01-21T17:54:01.557Z,15.73
2023-01-21T17:56:39.873Z,13.32
2023-01-21T17:59:35.189Z,13.70
2023-01-21T18:02:04.897Z,13.18
2023-01-21T18:04:33.115Z,11.88
2023-01-21T18:07:01.345Z,12.13
2023-01-21T18:09:30.926Z,13.25
2023-01-21T18:11:59.268Z,13.05
2023-01-21T18:14:27.506Z,13.05
2023-01-21T18:16:56.002Z,11.15
2023-01-21T18:19:33.610Z,10.95
2023-01-21T18:22:03.447Z,10.63
2023-01-21T18:24:32.100Z,10.93
2023-01-21T18:27:05.789Z,10.27
2023-01-21T18:29:39.456Z,10.23
2023-01-21T18:32:07.764Z,10.77
2023-01-21T18:34:35.400Z,11.25
2023-01-21T18:37:04.234Z,11.23
2023-01-21T18:39:32.398Z,13.13
2023-01-21T18:42:00.295Z,10.68
2023-01-21T18:44:28.445Z,13.25
2023-01-21T18:46:57.668Z,13.30
2023-01-21T18:49:28.228Z,13.30
2023-01-21T18:51:56.247Z,11.57
2023-01-21T18:54:24.405Z,11.55
2023-01-21T18:56:52.985Z,12.05
2023-01-21T18:59:22.841Z,14.60
2023-01-21T19:01:51.241Z,10.60
2023-01-21T19:04:19.512Z,13.07
2023-01-21T19:06:48.306Z,13.95
2023-01-21T19:09:25.129Z,17.88
2023-01-21T19:11:53.539Z,14.57
2023-01-21T19:14:21.541Z,16.48
2023-01-21T19:16:49.525Z,17.08
2023-01-21T19:19:19.273Z,20.42
2023-01-21T19:21:47.330Z,18.27
2023-01-21T19:24:15.136Z,20.00
2023-01-21T19:26:43.725Z,16.55
2023-01-21T19:29:17.005Z,20.20
2023-01-21T19:31:45.130Z,19.02
2023-01-21T19:34:13.268Z,17.13
2023-01-21T19:36:41.477Z,21.80
2023-01-21T19:39:22.407Z,19.27
2023-01-21T19:42:03.435Z,20.88
2023-01-21T19:44:35.656Z,18.42
2023-01-21T19:47:03.859Z,18.73
2023-01-21T19:49:31.906Z,18.38
2023-01-21T19:51:59.865Z,20.42
2023-01-21T19:54:27.795Z,19.65
2023-01-21T19:56:55.751Z,17.30
2023-01-21T19:59:23.807Z,21.75
2023-01-21T20:01:51.855Z,19.15
2023-01-21T20:04:19.946Z,16.58
2023-01-21T20:06:48.138Z,20.65
2023-01-21T20:09:18.064Z,21.13
2023-01-21T20:11:45.778Z,17.00
2023-01-21T20:14:14.026Z,17.83
2023-01-21T20:16:48.562Z,19.80
2023-01-21T20:19:19.826Z,17.52
2023-01-21T20:21:59.840Z,21.35
2023-01-21T20:24:30.681Z,20.33
2023-01-21T20:27:00.208Z,20.95
2023-01-21T20:29:28.025Z,24.25
2023-01-21T20:31:56.198Z,21.67
2023-01-21T20:34:24.511Z,22.00
2023-01-21T20:36:52.855Z,23.63
2023-01-21T20:39:20.715Z,20.17
2023-01-21T20:41:49.359Z,20.38
2023-01-21T20:44:17.405Z,18.73
2023-01-21T20:46:46.334Z,18.98
2023-01-21T20:49:14.949Z,19.70
2023-01-21T20:51:43.137Z,19.15
2023-01-21T20:54:12.807Z,16.67
2023-01-21T20:56:40.980Z,17.02
2023-01-21T20:59:11.305Z,20.17
2023-01-21T21:01:40.138Z,19.05
2023-01-21T21:04:08.195Z,21.95
2023-01-21T21:06:36.476Z,22.67
2023-01-21T21:09:04.458Z,19.90
2023-01-21T21:11:32.125Z,22.10
2023-01-21T21:14:02.022Z,24.15
2023-01-21T21:16:32.250Z,24.33
2023-01-21T21:19:00.882Z,27.65
2023-01-21T21:21:28.475Z,25.38
2023-01-21T21:23:55.860Z,19.95
2023-01-21T21:26:25.981Z,27.00
2023-01-21T21:31:26.697Z,32.60
2023-01-21T21:33:54.016Z,25.58
2023-01-21T21:36:24.878Z,26.27
2023-01-21T21:38:56.037Z,21.88
2023-01-21T21:41:44.734Z,31.33
2023-01-21T21:44:12.570Z,25.63
2023-01-21T21:47:00.632Z,28.90
2023-01-21T21:49:29.043Z,27.58
2023-01-21T21:51:57.273Z,30.73
2023-01-21T21:54:24.602Z,30.73
2023-01-21T21:56:52.012Z,27.25
2023-01-21T21:59:19.374Z,27.63
2023-01-21T22:01:46.726Z,27.17
2023-01-21T22:04:14.171Z,26.55
2023-01-21T22:06:41.532Z,27.63
2023-01-21T22:09:09.240Z,27.10
2023-01-21T22:11:36.524Z,24.40
2023-01-21T22:14:04.560Z,27.63
2023-01-21T22:16:32.694Z,24.55
2023-01-21T22:19:00.738Z,21.98
2023-01-21T22:21:33.120Z,26.88
2023-01-21T22:24:02.774Z,27.38
2023-01-21T22:26:30.731Z,26.35
2023-01-21T22:28:58.387Z,24.73
2023-01-21T22:31:28.678Z,28.88
2023-01-21T22:33:57.540Z,26.35
2023-01-21T22:36:26.637Z,21.25
2023-01-21T22:38:54.267Z,29.95
2023-01-21T22:41:23.941Z,21.92
2023-01-21T22:43:52.000Z,23.98
2023-01-21T22:46:22.844Z,25.10
2023-01-21T22:48:50.590Z,26.80
2023-01-21T22:51:19.734Z,25.40
2023-01-21T22:53:48.067Z,25.60
2023-01-21T22:56:17.641Z,24.95
2023-01-21T22:58:45.517Z,24.30
2023-01-21T23:01:31.841Z,20.70
2023-01-21T23:04:00.477Z,26.33
2023-01-21T23:06:32.526Z,28.08
2023-01-21T23:09:24.651Z,31.80
2023-01-21T23:12:04.848Z,26.13
2023-01-21T23:17:48.616Z,27.63
2023-01-21T23:20:34.295Z,24.98
2023-01-21T23:23:01.651Z,30.55
2023-01-21T23:25:29.247Z,36.28
2023-01-21T23:27:56.495Z,31.67
2023-01-21T23:30:23.824Z,35.00
2023-01-21T23:32:51.030Z,32.10
2023-01-21T23:35:19.495Z,31.48
2023-01-21T23:37:46.859Z,30.08
2023-01-21T23:40:14.303Z,32.40
2023-01-21T23:42:41.693Z,29.02
2023-01-21T23:45:09.706Z,28.75
2023-01-21T23:47:37.062Z,29.88
2023-01-21T23:50:09.546Z,27.73
2023-01-21T23:52:40.912Z,25.83
2023-01-21T23:55:10.642Z,29.63
2023-01-21T23:57:38.266Z,27.60
